Time;durP1;ratioP1;P1;durP2;ratioP2;P2;SDS_P1;SDS_P2;PMS_P1;PMS_P2;Temp;Humidity;BMP_temperature;BMP_pressure;BME280_temperature;BME280_humidity;BME280_pressure;Samples;Min_cycle;Max_cycle;Signal;HPM_P1;HPM_P2
2022/04/02 00:01:00;;;;;;;1.00;1.00;;;17.30;62.40;;;;;;5107029;27;43955;-70
2022/04/02 00:03:28;;;;;;;1.10;1.10;;;17.30;62.50;;;;;;5106624;27;43943;-69
2022/04/02 00:05:56;;;;;;;1.10;1.10;;;17.30;62.50;;;;;;5106734;27;44005;-70
2022/04/02 00:08:25;;;;;;;1.13;1.13;;;17.30;63.40;;;;;;5107003;27;44211;-69
2022/04/02 00:10:54;;;;;;;1.30;1.20;;;17.40;63.50;;;;;;5106693;27;44007;-69
2022/04/02 00:13:23;;;;;;;1.27;1.27;;;17.50;63.00;;;;;;5106769;27;44103;-70
2022/04/02 00:15:51;;;;;;;1.30;1.30;;;17.70;62.50;;;;;;5107066;27;43811;-70
2022/04/02 00:18:21;;;;;;;1.13;1.13;;;17.80;62.10;;;;;;5107248;27;43899;-70
2022/04/02 00:20:49;;;;;;;1.20;1.20;;;17.90;61.80;;;;;;5106998;27;44022;-69
2022/04/02 00:26:04;;;;;;;1.30;1.30;;;17.80;61.30;;;;;;5106633;27;43934;-69
2022/04/02 00:28:36;;;;;;;1.30;1.30;;;17.70;61.20;;;;;;5107043;27;44058;-69
2022/04/02 00:31:04;;;;;;;1.20;1.20;;;17.60;61.40;;;;;;5106532;27;44708;-70
2022/04/02 00:33:33;;;;;;;1.30;1.13;;;17.50;61.70;;;;;;5106634;27;44006;-69
2022/04/02 00:36:01;;;;;;;1.10;1.10;;;17.50;61.90;;;;;;5106659;27;43960;-69
2022/04/02 00:38:29;;;;;;;1.33;1.33;;;17.40;62.00;;;;;;5107012;27;43900;-69
2022/04/02 00:40:57;;;;;;;1.20;1.20;;;17.40;62.10;;;;;;5109171;27;44017;-70
2022/04/02 00:43:28;;;;;;;1.10;1.10;;;17.40;62.30;;;;;;5091121;27;45051;-70
2022/04/02 00:45:57;;;;;;;1.33;1.20;;;17.30;62.80;;;;;;5110088;27;43364;-70
2022/04/02 00:48:27;;;;;;;1.00;1.00;;;17.40;63.40;;;;;;5091547;27;44209;-69
2022/04/02 00:50:56;;;;;;;1.30;1.30;;;17.50;63.20;;;;;;5109759;27;43843;-70
2022/04/02 00:53:25;;;;;;;1.17;1.10;;;17.60;62.60;;;;;;5090721;27;45052;-70
2022/04/02 00:55:53;;;;;;;1.00;1.00;;;17.60;62.10;;;;;;5096244;27;43920;-70
2022/04/02 00:58:21;;;;;;;1.17;1.17;;;17.60;61.80;;;;;;5096969;27;43975;-69
2022/04/02 01:00:52;;;;;;;1.30;1.30;;;17.50;61.70;;;;;;5079039;27;45008;-72
2022/04/02 01:03:23;;;;;;;1.30;1.20;;;17.50;61.90;;;;;;5110373;27;43991;-71
2022/04/02 01:05:52;;;;;;;1.10;1.10;;;17.40;62.00;;;;;;5110661;27;43970;-72
2022/04/02 01:08:24;;;;;;;1.13;1.13;;;17.40;62.20;;;;;;5091976;27;44026;-72
2022/04/02 01:10:55;;;;;;;1.20;1.20;;;17.30;62.20;;;;;;5110878;27;43924;-72
2022/04/02 01:13:25;;;;;;;1.10;1.10;;;17.30;62.40;;;;;;5091941;27;45162;-71
2022/04/02 01:15:56;;;;;;;1.10;1.10;;;17.30;62.50;;;;;;5110470;27;43935;-72
2022/04/02 01:18:25;;;;;;;1.20;1.20;;;17.20;62.50;;;;;;5088306;27;43947;-73
2022/04/02 01:20:54;;;;;;;1.20;1.20;;;17.20;62.50;;;;;;5091390;27;44042;-72
2022/04/02 01:23:30;;;;;;;1.20;1.20;;;17.20;62.80;;;;;;5091677;27;43913;-72
2022/04/02 01:26:08;;;;;;;0.83;0.83;;;17.20;63.30;;;;;;5091810;27;43360;-72
2022/04/02 01:28:41;;;;;;;1.20;1.20;;;17.40;63.30;;;;;;5092444;27;44064;-72
2022/04/02 01:31:16;;;;;;;1.20;1.20;;;17.60;62.70;;;;;;5091441;27;44142;-73
2022/04/02 01:33:48;;;;;;;1.10;1.10;;;17.70;62.10;;;;;;5079261;27;44704;-71
2022/04/02 01:36:16;;;;;;;1.10;1.10;;;17.90;61.90;;;;;;5091770;27;43963;-72
2022/04/02 01:38:53;;;;;;;1.00;1.00;;;17.90;61.60;;;;;;5092496;27;44019;-71
2022/04/02 01:41:27;;;;;;;1.10;1.10;;;17.80;61.40;;;;;;5091624;27;44027;-72
2022/04/02 01:43:56;;;;;;;0.90;0.90;;;17.70;61.20;;;;;;5091316;27;44002;-72
2022/04/02 01:46:24;;;;;;;0.97;0.97;;;17.60;61.30;;;;;;5091461;27;43474;-72
2022/04/02 01:48:54;;;;;;;1.07;1.07;;;17.50;61.60;;;;;;5091618;27;44038;-72
2022/04/02 01:51:22;;;;;;;1.00;1.00;;;17.50;61.90;;;;;;5089667;27;45827;-72
2022/04/02 01:53:50;;;;;;;1.07;1.07;;;17.40;62.00;;;;;;5110038;27;43901;-72
2022/04/02 01:56:19;;;;;;;0.90;0.90;;;17.30;62.00;;;;;;5087807;28;43966;-72
2022/04/02 01:58:56;;;;;;;0.87;0.87;;;17.30;62.20;;;;;;5088263;28;43996;-72
2022/04/02 02:01:27;;;;;;;0.90;0.90;;;17.30;62.60;;;;;;5087875;28;45103;-72
2022/04/02 02:03:55;;;;;;;1.00;1.00;;;17.30;63.50;;;;;;5087588;28;45993;-72
2022/04/02 02:06:25;;;;;;;1.00;1.00;;;17.50;63.30;;;;;;5087865;28;43394;-72
2022/04/02 02:08:54;;;;;;;1.00;1.00;;;17.50;62.70;;;;;;5088240;28;44087;-72
2022/04/02 02:11:51;;;;;;;0.90;0.90;;;17.60;62.20;;;;;;5087847;28;45707;-72
2022/04/02 02:14:22;;;;;;;1.00;1.00;;;17.50;61.70;;;;;;5086605;27;44389;-71
2022/04/02 02:17:01;;;;;;;1.03;1.03;;;17.50;61.90;;;;;;5087429;28;43514;-72
2022/04/02 02:19:29;;;;;;;1.10;1.10;;;17.40;62.00;;;;;;5089503;27;44019;-72
2022/04/02 02:21:57;;;;;;;0.90;0.90;;;17.30;62.10;;;;;;5087632;28;45430;-72
2022/04/02 02:24:25;;;;;;;1.00;1.00;;;17.30;62.30;;;;;;5087421;28;45073;-72
2022/04/02 02:26:55;;;;;;;1.00;1.00;;;17.20;62.40;;;;;;5087323;28;43362;-73
2022/04/02 02:29:31;;;;;;;1.03;1.03;;;17.20;62.50;;;;;;5087872;28;44181;-71
2022/04/02 02:32:08;;;;;;;1.10;1.10;;;17.20;62.70;;;;;;5086827;28;43953;-72
2022/04/02 02:37:23;;;;;;;1.07;1.07;;;17.10;62.70;;;;;;5087408;28;43988;-73
2022/04/02 02:40:00;;;;;;;1.47;1.10;;;17.10;63.40;;;;;;5087800;28;43594;-72
2022/04/02 02:42:31;;;;;;;1.00;1.00;;;17.20;63.70;;;;;;5087372;28;45609;-72
2022/04/02 02:45:11;;;;;;;1.10;1.10;;;17.40;63.60;;;;;;5087243;28;44381;-72
2022/04/02 02:47:39;;;;;;;0.80;0.80;;;17.50;62.80;;;;;;5087263;28;44074;-72
2022/04/02 02:50:09;;;;;;;1.10;1.10;;;17.70;62.40;;;;;;5089346;28;44061;-72
2022/04/02 02:52:51;;;;;;;1.00;1.00;;;17.80;62.10;;;;;;5078462;28;45451;-72
2022/04/02 02:55:20;;;;;;;0.97;0.97;;;17.70;61.60;;;;;;5090046;27;44139;-72
2022/04/02 02:57:49;;;;;;;1.00;1.00;;;17.70;61.40;;;;;;5109434;27;44042;-72
2022/04/02 03:00:19;;;;;;;1.10;1.10;;;17.50;61.40;;;;;;5090858;27;43590;-72
2022/04/02 03:02:52;;;;;;;1.00;1.00;;;17.50;61.70;;;;;;5090114;27;44058;-71
2022/04/02 03:05:24;;;;;;;0.90;0.90;;;17.40;61.80;;;;;;5090244;27;43790;-72
2022/04/02 03:07:56;;;;;;;1.00;1.00;;;17.40;62.00;;;;;;5090200;27;43359;-72
2022/04/02 03:10:34;;;;;;;0.80;0.80;;;17.30;62.10;;;;;;5090423;27;43865;-73
2022/04/02 03:13:04;;;;;;;1.00;1.00;;;17.30;62.20;;;;;;5089863;27;45927;-72
2022/04/02 03:15:34;;;;;;;1.03;1.03;;;17.30;62.20;;;;;;5089796;27;45161;-72
2022/04/02 03:18:06;;;;;;;1.00;1.00;;;17.20;62.50;;;;;;5076923;27;43979;-73
2022/04/02 03:20:38;;;;;;;1.70;1.50;;;17.30;63.40;;;;;;5078661;27;44052;-71
2022/04/02 03:23:08;;;;;;;2.30;1.53;;;17.40;63.20;;;;;;5089759;27;45543;-72
2022/04/02 03:25:37;;;;;;;5.93;2.60;;;17.50;62.80;;;;;;5090002;27;44792;-72
2022/04/02 03:28:09;;;;;;;4.23;2.40;;;17.50;62.00;;;;;;5089743;27;43384;-72
2022/04/02 03:30:39;;;;;;;3.77;2.50;;;17.50;61.60;;;;;;5090414;27;43951;-72
2022/04/02 03:33:08;;;;;;;4.27;2.70;;;17.40;61.50;;;;;;5088889;27;45344;-72
2022/04/02 03:35:36;;;;;;;6.63;3.03;;;17.40;61.70;;;;;;5108080;27;43998;-72
2022/04/02 03:38:04;;;;;;;10.10;3.60;;;17.40;61.90;;;;;;5089750;27;43887;-71
2022/04/02 03:40:32;;;;;;;6.97;3.27;;;17.30;62.00;;;;;;5108695;27;43438;-72
2022/04/02 03:43:01;;;;;;;7.20;3.73;;;17.20;62.10;;;;;;5108064;27;43813;-72
2022/04/02 03:45:35;;;;;;;9.37;4.23;;;17.20;62.20;;;;;;5089410;27;43918;-72
2022/04/02 03:48:06;;;;;;;9.50;3.60;;;17.20;62.30;;;;;;5089685;27;44028;-71
2022/04/02 03:50:40;;;;;;;10.60;4.40;;;17.20;62.50;;;;;;5089722;27;43568;-72
2022/04/02 03:53:15;;;;;;;10.07;4.40;;;17.20;62.50;;;;;;5089354;27;43920;-72
2022/04/02 03:55:55;;;;;;;11.20;4.17;;;17.10;62.60;;;;;;5088897;27;44033;-72
2022/04/02 03:58:31;;;;;;;9.27;4.07;;;17.20;63.50;;;;;;5078351;27;44106;-72
2022/04/02 04:01:03;;;;;;;8.33;4.30;;;17.30;63.40;;;;;;5089797;27;43896;-72
2022/04/02 04:03:33;;;;;;;10.70;4.70;;;17.50;63.00;;;;;;5089570;27;44021;-72
2022/04/02 04:06:01;;;;;;;9.30;4.50;;;17.60;62.30;;;;;;5089236;27;43959;-72
2022/04/02 04:08:32;;;;;;;9.33;4.03;;;17.80;62.10;;;;;;5089225;27;43449;-72
2022/04/02 04:11:00;;;;;;;7.73;4.10;;;17.80;61.80;;;;;;5089805;27;43978;-72
2022/04/02 04:13:28;;;;;;;6.97;4.07;;;17.70;61.20;;;;;;5089003;27;44012;-72
2022/04/02 04:16:01;;;;;;;7.27;4.13;;;17.60;61.10;;;;;;5091741;27;44769;-72
2022/04/02 04:18:33;;;;;;;7.33;3.73;;;17.50;61.30;;;;;;5092617;27;43937;-71
2022/04/02 04:21:01;;;;;;;7.50;3.83;;;17.40;61.40;;;;;;5112185;27;43962;-72
2022/04/02 04:23:32;;;;;;;5.47;3.37;;;17.40;61.70;;;;;;5092744;27;45334;-72
2022/04/02 04:26:02;;;;;;;7.33;3.83;;;17.40;62.00;;;;;;5092809;27;43920;-72
2022/04/02 04:28:37;;;;;;;6.87;3.97;;;17.30;62.00;;;;;;5092611;27;44110;-72
2022/04/02 04:31:06;;;;;;;7.53;3.83;;;17.30;62.20;;;;;;5092619;27;43425;-72
2022/04/02 04:33:37;;;;;;;6.53;3.90;;;17.20;62.20;;;;;;5092146;27;45581;-71
2022/04/02 04:36:06;;;;;;;5.27;3.93;;;17.20;62.90;;;;;;5092450;27;44786;-73
2022/04/02 04:38:35;;;;;;;8.30;3.87;;;17.20;63.20;;;;;;5092500;27;44052;-72
2022/04/02 04:41:09;;;;;;;5.07;3.60;;;17.40;63.00;;;;;;5093131;27;43866;-72
2022/04/02 04:43:40;;;;;;;7.07;3.50;;;17.50;62.30;;;;;;5092676;27;43838;-72
2022/04/02 04:46:09;;;;;;;6.03;3.70;;;17.50;61.90;;;;;;5092655;27;44018;-72
2022/04/02 04:48:40;;;;;;;5.00;3.27;;;17.50;61.70;;;;;;5092189;27;43425;-71
2022/04/02 04:51:10;;;;;;;7.33;4.33;;;17.40;61.70;;;;;;5092766;27;44023;-72
2022/04/02 04:53:38;;;;;;;5.80;3.17;;;17.30;61.80;;;;;;5092404;27;45514;-72
2022/04/02 04:56:08;;;;;;;6.90;3.93;;;17.30;62.00;;;;;;5087887;28;45565;-72
2022/04/02 04:58:37;;;;;;;5.37;3.30;;;17.20;62.10;;;;;;5088661;28;43877;-72
2022/04/02 05:01:09;;;;;;;5.03;3.37;;;17.20;62.20;;;;;;5089265;28;43933;-72
2022/04/02 05:03:39;;;;;;;4.50;3.13;;;17.20;62.30;;;;;;5090127;28;44753;-72
2022/04/02 05:06:13;;;;;;;4.23;3.60;;;17.20;62.40;;;;;;5088640;28;43939;-71
2022/04/02 05:08:46;;;;;;;4.63;3.30;;;17.10;62.40;;;;;;5088490;28;43518;-72
2022/04/02 05:11:15;;;;;;;3.97;3.37;;;17.10;62.40;;;;;;5089039;28;44055;-72
2022/04/02 05:13:49;;;;;;;4.40;3.47;;;17.10;62.60;;;;;;5088159;28;46415;-72
2022/04/02 05:16:21;;;;;;;6.30;3.33;;;17.10;63.20;;;;;;5088632;28;44798;-71
2022/04/02 05:18:51;;;;;;;3.30;3.00;;;17.20;63.10;;;;;;5088447;28;44031;-72
2022/04/02 05:21:23;;;;;;;3.77;3.37;;;17.40;62.70;;;;;;5090570;28;43263;-72
2022/04/02 05:23:51;;;;;;;5.07;3.57;;;17.60;62.40;;;;;;5077132;28;43899;-71
2022/04/02 05:26:20;;;;;;;4.63;3.13;;;17.70;61.90;;;;;;5079307;27;43501;-71
2022/04/02 05:28:59;;;;;;;5.53;3.33;;;17.80;61.70;;;;;;5088562;28;43392;-72
2022/04/02 05:31:27;;;;;;;3.97;3.10;;;17.70;61.30;;;;;;5084283;28;43478;-72
2022/04/02 05:33:55;;;;;;;3.13;2.83;;;17.60;61.10;;;;;;5088369;28;45653;-72
2022/04/02 05:36:24;;;;;;;3.93;2.90;;;17.50;61.20;;;;;;5088029;28;44654;-72
2022/04/02 05:38:53;;;;;;;3.90;3.10;;;17.50;61.60;;;;;;5088268;28;43415;-72
2022/04/02 05:41:21;;;;;;;3.10;2.80;;;17.40;61.70;;;;;;5088717;28;43872;-71
2022/04/02 05:43:49;;;;;;;5.07;2.93;;;17.30;61.90;;;;;;5088079;28;45528;-72
2022/04/02 05:46:17;;;;;;;3.30;3.00;;;17.20;62.00;;;;;;5088559;28;44771;-72
2022/04/02 05:48:45;;;;;;;3.57;2.67;;;17.20;62.20;;;;;;5089843;28;43859;-72
2022/04/02 05:51:13;;;;;;;3.63;2.90;;;17.20;62.30;;;;;;5090201;28;43419;-72
2022/04/02 05:53:42;;;;;;;2.97;2.77;;;17.20;63.20;;;;;;5089437;28;43981;-71
2022/04/02 05:56:10;;;;;;;3.27;2.90;;;17.20;63.30;;;;;;5106830;27;43903;-72
2022/04/02 05:58:38;;;;;;;3.23;2.93;;;17.40;63.00;;;;;;5110080;27;43979;-72
2022/04/02 06:01:07;;;;;;;3.47;2.97;;;17.50;62.50;;;;;;5110474;27;43451;-72
2022/04/02 06:03:35;;;;;;;3.33;3.03;;;17.40;61.90;;;;;;5109755;27;44048;-72
2022/04/02 06:06:03;;;;;;;3.00;2.63;;;17.40;61.70;;;;;;5110310;27;44380;-71
2022/04/02 06:08:32;;;;;;;2.93;2.73;;;17.30;61.80;;;;;;5110079;27;43925;-72
2022/04/02 06:11:01;;;;;;;3.17;2.70;;;17.30;62.00;;;;;;5110469;27;43990;-72
2022/04/02 06:13:29;;;;;;;2.93;2.63;;;17.20;62.10;;;;;;5110110;27;43954;-72
2022/04/02 06:15:57;;;;;;;3.13;2.83;;;17.20;62.20;;;;;;5110147;27;44138;-72
2022/04/02 06:18:25;;;;;;;2.27;2.17;;;17.10;62.30;;;;;;5110738;27;44062;-71
2022/04/02 06:20:53;;;;;;;3.27;2.93;;;17.10;62.40;;;;;;5110251;27;43966;-72
2022/04/02 06:23:22;;;;;;;3.53;2.80;;;17.10;62.50;;;;;;5110153;27;43724;-72
2022/04/02 06:25:51;;;;;;;3.20;2.90;;;17.10;62.60;;;;;;5110025;27;43873;-72
2022/04/02 06:28:20;;;;;;;3.10;2.90;;;17.10;63.40;;;;;;5091491;27;43896;-72
2022/04/02 06:30:48;;;;;;;2.50;2.30;;;17.10;63.50;;;;;;5110252;27;43949;-72
2022/04/02 06:33:18;;;;;;;2.87;2.57;;;17.30;63.40;;;;;;5091070;27;46948;-72
2022/04/02 06:35:46;;;;;;;2.93;2.60;;;17.40;62.90;;;;;;5090491;27;45472;-72
2022/04/02 06:38:16;;;;;;;2.53;2.33;;;17.70;62.40;;;;;;5090030;27;43962;-71
2022/04/02 06:40:44;;;;;;;2.63;2.43;;;17.80;61.80;;;;;;5109364;27;43906;-73
2022/04/02 06:43:13;;;;;;;3.07;2.70;;;17.90;61.40;;;;;;5109375;27;45065;-72
2022/04/02 06:45:53;;;;;;;2.40;2.30;;;18.10;61.00;;;;;;5090757;27;43986;-72
2022/04/02 06:48:21;;;;;;;2.20;2.10;;;18.20;60.60;;;;;;5109443;27;44142;-72
2022/04/02 06:50:49;;;;;;;3.20;2.90;;;18.30;60.20;;;;;;5109779;27;43883;-72
2022/04/02 06:53:17;;;;;;;2.60;2.40;;;18.40;60.00;;;;;;5109229;27;44017;-72
2022/04/02 06:55:46;;;;;;;2.40;2.20;;;18.50;59.80;;;;;;5108896;27;43962;-72
2022/04/02 06:58:22;;;;;;;2.27;2.10;;;18.50;59.60;;;;;;5090523;27;43339;-72
2022/04/02 07:00:50;;;;;;;2.70;2.50;;;18.50;59.70;;;;;;5109507;27;43988;-73
2022/04/02 07:03:21;;;;;;;2.93;2.40;;;18.30;59.90;;;;;;5109091;27;45047;-71
2022/04/02 07:05:49;;;;;;;2.60;2.40;;;18.10;59.80;;;;;;5109083;27;43348;-72
2022/04/02 07:08:18;;;;;;;2.20;2.07;;;18.00;60.00;;;;;;5109077;27;43994;-72
2022/04/02 07:10:46;;;;;;;2.13;2.03;;;17.80;60.20;;;;;;5109549;27;43457;-72
2022/04/02 07:13:14;;;;;;;2.07;1.97;;;17.70;60.60;;;;;;5090130;27;45902;-72
2022/04/02 07:15:43;;;;;;;2.60;2.40;;;17.60;60.90;;;;;;5090350;27;46618;-73
2022/04/02 07:18:11;;;;;;;2.60;2.40;;;17.50;61.90;;;;;;5108809;27;43867;-72
2022/04/02 07:20:44;;;;;;;2.60;2.50;;;17.50;63.20;;;;;;5090355;27;44177;-72
2022/04/02 07:23:12;;;;;;;2.40;1.87;;;17.50;63.00;;;;;;5108557;27;43880;-71
2022/04/02 07:25:41;;;;;;;3.77;2.30;;;17.60;62.60;;;;;;5089860;27;45077;-71
2022/04/02 07:28:09;;;;;;;2.27;2.17;;;17.60;62.20;;;;;;5108734;27;43793;-72
2022/04/02 07:30:38;;;;;;;2.10;2.00;;;17.60;61.70;;;;;;5109434;27;43860;-72
2022/04/02 07:33:06;;;;;;;2.00;1.90;;;17.50;61.40;;;;;;5108728;27;43725;-72
2022/04/02 07:35:35;;;;;;;1.90;1.80;;;17.40;61.50;;;;;;5090344;27;44662;-71
2022/04/02 07:38:09;;;;;;;2.27;1.77;;;17.30;61.60;;;;;;5090084;27;44038;-72
2022/04/02 07:40:48;;;;;;;1.90;1.80;;;17.30;61.90;;;;;;5090169;27;43995;-72
2022/04/02 07:43:21;;;;;;;2.03;2.03;;;17.20;62.00;;;;;;5089864;27;43975;-72
2022/04/02 07:45:52;;;;;;;2.67;2.43;;;17.20;62.20;;;;;;5108683;27;43972;-72
2022/04/02 07:48:20;;;;;;;2.00;1.90;;;17.10;62.20;;;;;;5109122;27;43450;-72
2022/04/02 07:50:48;;;;;;;1.67;1.67;;;17.10;62.30;;;;;;5111670;27;44026;-72
2022/04/02 07:53:21;;;;;;;1.90;1.80;;;17.10;62.40;;;;;;5112488;27;44331;-72
2022/04/02 07:55:50;;;;;;;1.53;1.53;;;17.10;62.90;;;;;;5066764;28;44837;-72
2022/04/02 07:58:20;;;;;;;2.10;2.00;;;17.10;63.80;;;;;;5098975;27;44020;-72
2022/04/02 08:00:49;;;;;;;1.97;1.87;;;17.20;63.80;;;;;;5067823;27;43978;-72
2022/04/02 08:03:17;;;;;;;1.90;1.80;;;17.40;63.30;;;;;;5081679;27;46062;-72
2022/04/02 08:05:45;;;;;;;2.00;1.90;;;17.50;62.70;;;;;;5111628;27;43442;-72
2022/04/02 08:08:16;;;;;;;2.00;1.90;;;17.60;62.40;;;;;;5111847;27;44010;-72
2022/04/02 08:10:48;;;;;;;2.30;2.10;;;17.70;62.30;;;;;;5112204;27;43939;-72
2022/04/02 08:13:16;;;;;;;1.97;1.87;;;17.60;61.60;;;;;;5111700;27;43724;-72
2022/04/02 08:15:46;;;;;;;1.73;1.63;;;17.50;61.30;;;;;;5093563;27;44933;-72
2022/04/02 08:18:17;;;;;;;1.80;1.70;;;17.40;61.30;;;;;;5093064;27;44035;-72
2022/04/02 08:20:45;;;;;;;2.10;2.00;;;17.40;61.60;;;;;;5112337;27;43867;-72
2022/04/02 08:23:13;;;;;;;1.93;1.70;;;17.30;61.70;;;;;;5112099;27;43895;-72
2022/04/02 08:25:46;;;;;;;1.50;1.50;;;17.20;61.90;;;;;;5112005;27;43929;-72
2022/04/02 08:28:26;;;;;;;2.00;1.90;;;17.20;62.10;;;;;;5111576;27;44025;-72
2022/04/02 08:30:58;;;;;;;1.90;1.80;;;17.10;62.10;;;;;;5112047;27;43952;-71
2022/04/02 08:33:34;;;;;;;2.00;1.90;;;17.10;62.40;;;;;;5111782;27;43927;-71
2022/04/02 08:36:04;;;;;;;1.90;1.80;;;17.10;63.70;;;;;;5111558;27;43885;-72
2022/04/02 08:38:39;;;;;;;1.63;1.63;;;17.20;63.50;;;;;;5111188;27;43988;-72
2022/04/02 08:41:52;;;;;;;1.80;1.70;;;17.30;63.20;;;;;;5100706;27;44001;-72
2022/04/02 08:44:56;;;;;;;1.73;1.63;;;17.30;62.20;;;;;;5066557;28;45865;-72
2022/04/02 08:47:45;;;;;;;1.70;1.70;;;17.30;61.90;;;;;;5108412;27;43996;-71
2022/04/02 08:50:15;;;;;;;1.50;1.50;;;17.20;62.00;;;;;;5100958;27;43927;-72
2022/04/02 08:52:51;;;;;;;1.60;1.60;;;17.20;62.20;;;;;;5111563;27;43408;-72
2022/04/02 08:55:20;;;;;;;1.90;1.80;;;17.10;62.20;;;;;;5111078;27;44803;-72
2022/04/02 08:58:09;;;;;;;1.77;1.67;;;17.10;62.40;;;;;;5111597;27;44047;-71
2022/04/02 09:00:42;;;;;;;1.77;1.77;;;17.00;62.30;;;;;;5111238;27;43994;-72
2022/04/02 09:03:43;;;;;;;1.47;1.47;;;17.00;62.40;;;;;;5112062;27;43946;-72
2022/04/02 09:06:37;;;;;;;1.50;1.50;;;17.00;62.50;;;;;;5111773;27;44706;-71
2022/04/02 09:09:06;;;;;;;2.00;1.90;;;17.00;62.60;;;;;;5048831;27;44696;-72
2022/04/02 09:11:48;;;;;;;1.47;1.47;;;17.00;62.60;;;;;;5092790;27;43939;-71
2022/04/02 09:14:27;;;;;;;1.40;1.40;;;17.00;63.80;;;;;;5111431;27;43908;-72
2022/04/02 09:17:06;;;;;;;1.57;1.57;;;17.10;63.70;;;;;;5111351;27;43856;-71
2022/04/02 09:20:09;;;;;;;2.60;1.60;;;17.30;63.20;;;;;;5111245;27;44387;-72
2022/04/02 09:22:43;;;;;;;1.60;1.60;;;17.50;62.70;;;;;;5111449;27;43947;-72
2022/04/02 09:25:27;;;;;;;1.40;1.40;;;17.60;62.40;;;;;;5111223;27;44014;-72
2022/04/02 09:28:12;;;;;;;1.30;1.30;;;17.50;61.70;;;;;;5098410;27;43916;-72
2022/04/02 09:30:57;;;;;;;1.50;1.40;;;17.50;61.40;;;;;;5110852;27;44009;-72
2022/04/02 09:33:42;;;;;;;1.40;1.40;;;17.40;61.50;;;;;;5067424;27;43442;-71
2022/04/02 09:36:22;;;;;;;1.50;1.50;;;17.30;61.60;;;;;;5112247;27;43921;-72
2022/04/02 09:39:05;;;;;;;1.50;1.50;;;17.20;61.80;;;;;;5110754;27;43876;-72
2022/04/02 09:42:06;;;;;;;1.50;1.40;;;17.20;62.10;;;;;;5111118;27;43511;-72
2022/04/02 09:44:47;;;;;;;1.37;1.37;;;17.10;62.10;;;;;;5091786;27;43397;-72
2022/04/02 09:47:19;;;;;;;1.57;1.50;;;17.10;62.20;;;;;;5092597;27;43954;-71
2022/04/02 09:49:51;;;;;;;1.50;1.50;;;17.00;62.40;;;;;;5110175;27;44963;-72
2022/04/02 09:52:21;;;;;;;1.40;1.30;;;17.10;63.70;;;;;;5110613;27;43750;-72
2022/04/02 09:54:54;;;;;;;1.30;1.30;;;17.20;63.50;;;;;;5088240;28;44062;-72
2022/04/02 09:57:27;;;;;;;1.70;1.70;;;17.30;63.00;;;;;;5090141;27;43997;-72
2022/04/02 10:00:05;;;;;;;1.30;1.30;;;17.30;62.00;;;;;;5090223;27;43746;-72
2022/04/02 10:02:44;;;;;;;1.53;1.50;;;17.20;61.70;;;;;;5086310;28;44053;-72
2022/04/02 10:05:14;;;;;;;1.63;1.53;;;17.20;61.70;;;;;;5089942;28;44015;-72
2022/04/02 10:07:49;;;;;;;1.40;1.40;;;17.20;62.00;;;;;;5090512;28;44402;-72
2022/04/02 10:10:19;;;;;;;1.33;1.33;;;17.10;62.00;;;;;;5090252;28;44772;-72
2022/04/02 10:12:47;;;;;;;1.40;1.40;;;17.10;62.20;;;;;;5089146;27;43845;-72
2022/04/02 10:15:15;;;;;;;1.10;1.10;;;17.00;62.20;;;;;;5090256;28;43943;-72
2022/04/02 10:17:43;;;;;;;1.37;1.37;;;17.00;62.30;;;;;;5091017;28;44486;-72
2022/04/02 10:20:11;;;;;;;1.60;1.60;;;17.00;62.40;;;;;;5090326;28;43919;-72
2022/04/02 10:22:42;;;;;;;1.27;1.27;;;17.00;62.40;;;;;;5089744;27;43918;-72
2022/04/02 10:25:11;;;;;;;1.27;1.27;;;17.00;62.50;;;;;;5089762;28;43394;-72
2022/04/02 10:27:41;;;;;;;1.40;1.40;;;17.00;62.60;;;;;;5088267;28;43481;-72
2022/04/02 10:30:11;;;;;;;1.10;1.10;;;17.00;63.50;;;;;;5089138;28;44038;-72
2022/04/02 10:33:26;;;;;;;1.23;1.23;;;17.00;63.50;;;;;;5089051;28;43399;-72
2022/04/02 10:35:50;;;;;;;1.30;1.30;;;17.20;63.10;;;;;;5087826;28;43422;-72
2022/04/02 10:38:25;;;;;;;1.20;1.20;;;17.40;62.50;;;;;;5089862;28;43872;-72
2022/04/02 10:40:53;;;;;;;1.37;1.37;;;17.50;62.20;;;;;;5088716;28;43935;-72
2022/04/02 10:43:26;;;;;;;1.23;1.23;;;17.50;61.90;;;;;;5089122;28;44035;-72
2022/04/02 10:45:54;;;;;;;1.40;1.40;;;17.50;61.20;;;;;;5087493;28;44019;-72
2022/04/02 10:48:27;;;;;;;1.00;1.00;;;17.40;61.10;;;;;;5076278;28;44092;-71
2022/04/02 10:50:55;;;;;;;1.10;1.10;;;17.30;61.20;;;;;;5089026;28;43962;-71
2022/04/02 10:53:23;;;;;;;1.27;1.27;;;17.20;61.50;;;;;;5089424;28;43853;-72
2022/04/02 10:55:58;;;;;;;1.17;1.17;;;17.20;61.70;;;;;;5103917;27;43902;-72
2022/04/02 10:58:27;;;;;;;1.33;1.33;;;17.10;61.80;;;;;;5109871;27;44026;-72
2022/04/02 11:00:57;;;;;;;1.20;1.20;;;17.10;62.00;;;;;;5109236;27;45032;-72
2022/04/02 11:03:30;;;;;;;1.10;1.10;;;17.00;62.00;;;;;;5109629;27;44023;-73
2022/04/02 11:05:58;;;;;;;1.30;1.30;;;17.00;62.20;;;;;;5109422;27;44014;-72
2022/04/02 11:08:30;;;;;;;1.13;1.13;;;17.00;63.40;;;;;;5091352;27;43432;-72
2022/04/02 11:10:59;;;;;;;1.37;1.37;;;17.10;63.30;;;;;;5109195;27;43849;-72
2022/04/02 11:13:32;;;;;;;1.17;1.17;;;17.20;62.80;;;;;;5109722;27;43994;-72
2022/04/02 11:16:00;;;;;;;1.33;1.33;;;17.30;62.20;;;;;;5090498;27;44030;-72
2022/04/02 11:18:28;;;;;;;1.43;1.40;;;17.20;61.70;;;;;;5091167;27;44120;-71
2022/04/02 11:21:02;;;;;;;1.20;1.20;;;17.20;61.70;;;;;;5109012;27;43849;-71
2022/04/02 11:23:39;;;;;;;1.20;1.20;;;17.10;61.80;;;;;;5090240;27;46385;-72
2022/04/02 11:26:07;;;;;;;1.20;1.20;;;17.10;61.90;;;;;;5109472;27;43903;-72
2022/04/02 11:28:45;;;;;;;1.10;1.10;;;17.00;62.00;;;;;;5109821;27;43398;-72
2022/04/02 11:31:13;;;;;;;1.20;1.20;;;17.00;62.20;;;;;;5108905;27;43915;-72
2022/04/02 11:33:51;;;;;;;1.00;1.00;;;17.00;62.20;;;;;;5109047;27;43975;-72
2022/04/02 11:36:22;;;;;;;1.10;1.10;;;17.00;62.30;;;;;;5109451;27;44042;-71
2022/04/02 11:38:52;;;;;;;1.30;1.30;;;16.90;63.10;;;;;;5110063;27;43402;-72
2022/04/02 11:41:21;;;;;;;0.90;0.90;;;16.90;62.40;;;;;;5109141;27;44708;-72
2022/04/02 11:43:52;;;;;;;1.30;1.30;;;16.90;62.50;;;;;;5108931;27;43939;-72
2022/04/02 11:46:21;;;;;;;1.23;1.23;;;16.90;63.30;;;;;;5090012;27;43868;-72
2022/04/02 11:48:54;;;;;;;1.10;1.10;;;17.00;63.50;;;;;;5108751;27;44017;-72
2022/04/02 11:51:22;;;;;;;1.00;1.00;;;17.20;63.20;;;;;;5108507;27;43892;-72
2022/04/02 11:53:50;;;;;;;1.13;1.13;;;17.40;62.70;;;;;;5108882;27;43425;-71
2022/04/02 11:56:27;;;;;;;1.10;1.10;;;17.50;62.10;;;;;;5108347;27;44508;-71
2022/04/02 11:58:58;;;;;;;1.43;1.43;;;17.50;61.80;;;;;;5090175;27;43989;-72
2022/04/02 12:01:26;;;;;;;1.30;1.30;;;17.50;61.20;;;;;;5089485;27;45949;-72
2022/04/02 12:04:12;;;;;;;1.10;1.10;;;17.40;61.10;;;;;;5108203;27;43383;-71
2022/04/02 12:06:41;;;;;;;1.10;1.10;;;17.30;61.20;;;;;;5108737;27;43939;-72
2022/04/02 12:09:18;;;;;;;1.20;1.20;;;17.20;61.40;;;;;;5090337;27;44146;-72
2022/04/02 12:11:54;;;;;;;1.20;1.20;;;17.10;61.50;;;;;;5108398;27;43962;-72
2022/04/02 12:14:30;;;;;;;1.17;1.17;;;17.10;61.70;;;;;;5108877;27;43408;-71
2022/04/02 12:17:04;;;;;;;1.10;1.10;;;17.10;62.00;;;;;;5089849;27;44029;-72
2022/04/02 12:19:40;;;;;;;1.10;1.10;;;17.00;62.00;;;;;;5109053;27;43943;-71
2022/04/02 12:22:22;;;;;;;1.10;1.10;;;17.00;62.10;;;;;;5108494;27;43897;-72
2022/04/02 12:24:52;;;;;;;1.10;1.10;;;17.00;62.90;;;;;;5108386;27;43916;-71
2022/04/02 12:27:21;;;;;;;0.90;0.90;;;17.00;63.40;;;;;;5108325;27;43959;-72
2022/04/02 12:29:50;;;;;;;1.10;1.10;;;17.20;63.10;;;;;;5108349;27;43999;-72
2022/04/02 12:32:30;;;;;;;1.20;1.20;;;17.20;62.10;;;;;;5108084;27;44005;-71
2022/04/02 12:34:59;;;;;;;1.10;1.10;;;17.20;61.80;;;;;;5108067;27;43983;-72
2022/04/02 12:37:29;;;;;;;1.20;1.20;;;17.20;61.70;;;;;;5093159;27;44516;-72
2022/04/02 12:39:59;;;;;;;1.10;1.10;;;17.10;61.80;;;;;;5093773;27;43951;-73
2022/04/02 12:42:37;;;;;;;1.10;1.10;;;17.00;61.80;;;;;;5112115;27;45102;-72
2022/04/02 12:45:11;;;;;;;1.10;1.10;;;17.00;62.00;;;;;;5112040;27;43951;-72
2022/04/02 12:47:40;;;;;;;1.00;1.00;;;17.00;62.20;;;;;;5111997;27;44065;-72
2022/04/02 12:50:14;;;;;;;1.13;1.13;;;17.00;62.30;;;;;;5112367;27;43983;-73
2022/04/02 12:52:49;;;;;;;1.00;1.00;;;16.90;62.30;;;;;;5112254;27;43884;-72
2022/04/02 12:55:21;;;;;;;1.10;1.10;;;16.90;62.50;;;;;;5111607;27;44006;-71
2022/04/02 12:58:00;;;;;;;1.03;1.03;;;16.90;62.50;;;;;;5111906;27;44057;-72
2022/04/02 13:00:31;;;;;;;1.07;1.07;;;16.90;62.60;;;;;;5112671;27;44099;-71
2022/04/02 13:03:01;;;;;;;1.30;1.30;;;16.90;62.80;;;;;;5111426;27;44790;-71
2022/04/02 13:05:44;;;;;;;1.20;1.20;;;16.90;63.50;;;;;;5092622;27;44515;-72
2022/04/02 13:08:22;;;;;;;1.00;1.00;;;17.00;63.30;;;;;;5100198;27;43947;-72
2022/04/02 13:10:53;;;;;;;1.17;1.17;;;17.20;62.80;;;;;;5111694;27;43982;-72
2022/04/02 13:13:37;;;;;;;1.10;1.10;;;17.40;62.30;;;;;;5111625;27;44000;-71
2022/04/02 13:16:07;;;;;;;1.30;1.30;;;17.50;61.90;;;;;;5092252;27;44618;-72